createdAt,value
2022-10-04T00:00:10.026Z,2.85
2022-10-04T00:02:38.152Z,3.55
2022-10-04T00:05:08.292Z,5.37
2022-10-04T00:07:44.552Z,5.55
2022-10-04T00:10:32.888Z,5.65
2022-10-04T00:13:06.084Z,5.25
2022-10-04T00:15:39.023Z,6.72
2022-10-04T00:18:12.372Z,9.55
2022-10-04T00:20:53.183Z,6.60
2022-10-04T00:23:23.154Z,3.83
2022-10-04T00:26:04.352Z,5.50
2022-10-04T00:28:37.399Z,3.65
2022-10-04T00:31:25.916Z,6.20
2022-10-04T00:34:00.486Z,5.30
2022-10-04T00:36:35.706Z,5.00
2022-10-04T00:39:08.682Z,2.70
2022-10-04T00:41:48.364Z,3.80
2022-10-04T00:44:31.113Z,7.18
2022-10-04T00:47:00.677Z,5.15
2022-10-04T00:49:40.360Z,6.12
2022-10-04T00:52:13.332Z,7.28
2022-10-04T00:54:44.458Z,3.72
2022-10-04T00:57:17.608Z,10.70
2022-10-04T00:59:50.688Z,3.42
2022-10-04T01:02:51.154Z,3.92
2022-10-04T01:05:23.329Z,3.78
2022-10-04T01:07:54.255Z,6.05
2022-10-04T01:10:24.927Z,3.97
2022-10-04T01:12:56.351Z,4.95
2022-10-04T01:15:53.008Z,3.53
2022-10-04T01:18:20.568Z,5.90
2022-10-04T01:20:57.600Z,6.28
2022-10-04T01:23:34.079Z,5.37
2022-10-04T01:26:06.524Z,6.47
2022-10-04T01:28:34.835Z,4.28
2022-10-04T01:31:02.358Z,5.18
2022-10-04T01:33:31.004Z,4.62
2022-10-04T01:35:58.651Z,4.70
2022-10-04T01:38:26.213Z,5.45
2022-10-04T01:41:00.491Z,2.80
2022-10-04T01:43:33.271Z,4.78
2022-10-04T01:46:05.298Z,5.43
2022-10-04T01:48:37.082Z,3.33
2022-10-04T01:51:18.835Z,3.00
2022-10-04T01:53:51.473Z,6.55
2022-10-04T01:58:49.946Z,7.72
2022-10-04T02:01:31.230Z,6.43
2022-10-04T02:04:10.326Z,7.22
2022-10-04T02:06:39.490Z,3.55
2022-10-04T02:09:10.787Z,4.55
2022-10-04T02:11:41.347Z,6.85
2022-10-04T02:14:17.674Z,6.03
2022-10-04T02:16:46.536Z,3.25
2022-10-04T02:19:15.316Z,4.25
2022-10-04T02:21:43.560Z,6.90
2022-10-04T02:24:12.121Z,6.25
2022-10-04T02:26:39.696Z,5.70
2022-10-04T02:29:09.481Z,5.53
2022-10-04T02:31:57.116Z,4.53
2022-10-04T02:34:24.820Z,5.22
2022-10-04T02:36:52.550Z,5.30
2022-10-04T02:39:25.982Z,4.28
2022-10-04T02:42:03.879Z,6.43
2022-10-04T02:44:41.752Z,2.95
2022-10-04T02:47:23.176Z,3.33
2022-10-04T02:50:20.000Z,5.60
2022-10-04T02:52:51.098Z,4.37
2022-10-04T02:55:22.608Z,6.65
2022-10-04T02:57:52.327Z,3.17
2022-10-04T03:00:26.915Z,3.30
2022-10-04T03:03:20.080Z,2.75
2022-10-04T03:06:01.200Z,5.32
2022-10-04T03:08:31.770Z,5.68
2022-10-04T03:10:59.704Z,4.28
2022-10-04T03:13:27.660Z,4.50
2022-10-04T03:15:55.525Z,3.55
2022-10-04T03:18:23.372Z,3.95
2022-10-04T03:20:50.737Z,3.17
2022-10-04T03:23:18.990Z,3.97
2022-10-04T03:26:03.809Z,3.72
2022-10-04T03:28:31.441Z,2.12
2022-10-04T03:30:58.921Z,3.22
2022-10-04T03:33:29.267Z,6.43
2022-10-04T03:35:59.023Z,4.37
2022-10-04T03:38:27.343Z,4.80
2022-10-04T03:40:59.376Z,4.37
2022-10-04T03:45:55.709Z,6.03
2022-10-04T03:48:29.336Z,4.50
2022-10-04T03:50:57.683Z,5.15
2022-10-04T03:53:29.972Z,4.45
2022-10-04T03:58:32.032Z,5.90
2022-10-04T04:01:17.544Z,7.50
2022-10-04T04:03:54.119Z,9.30
2022-10-04T04:06:22.579Z,3.90
2022-10-04T04:08:53.243Z,4.32
2022-10-04T04:11:24.753Z,3.72
2022-10-04T04:14:10.091Z,3.20
2022-10-04T04:16:37.972Z,4.57
2022-10-04T04:19:12.097Z,6.30
2022-10-04T04:21:40.143Z,4.07
2022-10-04T04:24:17.007Z,4.10
2022-10-04T04:26:48.227Z,5.32
2022-10-04T04:29:48.232Z,5.30
2022-10-04T04:32:18.944Z,3.55
2022-10-04T04:35:07.147Z,6.28
2022-10-04T04:37:35.853Z,6.47
2022-10-04T04:40:21.135Z,4.60
2022-10-04T04:42:49.610Z,4.00
2022-10-04T04:45:20.221Z,5.95
2022-10-04T04:47:52.348Z,3.83
2022-10-04T04:52:50.266Z,4.62
2022-10-04T04:55:23.339Z,3.65
2022-10-04T04:57:52.391Z,4.68
2022-10-04T05:00:26.164Z,4.43
2022-10-04T05:02:58.523Z,9.05
2022-10-04T05:05:28.628Z,4.75
2022-10-04T05:08:22.469Z,4.10
2022-10-04T05:11:09.504Z,4.85
2022-10-04T05:13:53.124Z,3.08
2022-10-04T05:16:26.771Z,3.28
2022-10-04T05:18:57.543Z,4.78
2022-10-04T05:21:30.351Z,4.40
2022-10-04T05:24:05.953Z,5.50
2022-10-04T05:26:33.274Z,4.50
2022-10-04T05:29:07.428Z,5.00
2022-10-04T05:31:34.645Z,4.80
2022-10-04T05:34:14.092Z,4.68
2022-10-04T05:36:58.633Z,4.93
2022-10-04T05:39:41.001Z,8.35
2022-10-04T05:42:23.582Z,5.40
2022-10-04T05:44:53.699Z,4.12
2022-10-04T05:47:24.062Z,6.20
2022-10-04T05:49:54.041Z,7.18
2022-10-04T05:52:30.326Z,3.70
2022-10-04T05:55:13.125Z,6.90
2022-10-04T06:00:15.894Z,5.80
2022-10-04T06:02:51.203Z,4.00
2022-10-04T06:05:37.061Z,2.87
2022-10-04T06:08:17.225Z,5.75
2022-10-04T06:10:47.380Z,5.18
2022-10-04T06:14:01.116Z,3.35
2022-10-04T06:16:57.529Z,4.12
2022-10-04T06:19:46.746Z,5.75
2022-10-04T06:22:18.381Z,7.50
2022-10-04T06:25:02.996Z,3.33
2022-10-04T06:27:36.787Z,4.47
2022-10-04T06:30:06.458Z,4.68
2022-10-04T06:33:14.027Z,4.55
2022-10-04T06:35:59.918Z,4.75
2022-10-04T06:38:47.088Z,5.55
2022-10-04T06:41:25.713Z,5.57
2022-10-04T06:44:24.501Z,6.10
2022-10-04T06:47:05.546Z,5.78
2022-10-04T06:49:50.295Z,4.15
2022-10-04T06:52:28.405Z,4.53
2022-10-04T06:54:55.570Z,6.25
2022-10-04T06:57:38.105Z,4.78
2022-10-04T07:00:13.171Z,4.32
2022-10-04T07:02:43.905Z,5.82
2022-10-04T07:05:30.127Z,6.00
2022-10-04T07:08:11.483Z,5.43
2022-10-04T07:10:49.610Z,4.03
2022-10-04T07:13:28.360Z,4.78
2022-10-04T07:16:02.218Z,7.18
2022-10-04T07:18:37.069Z,3.90
2022-10-04T07:21:13.939Z,7.53
2022-10-04T07:24:03.693Z,4.15
2022-10-04T07:26:42.050Z,4.75
2022-10-04T07:29:22.175Z,4.93
2022-10-04T07:31:53.887Z,3.53
2022-10-04T07:34:26.090Z,3.95
2022-10-04T07:36:55.380Z,4.03
2022-10-04T07:39:42.594Z,4.85
2022-10-04T07:42:19.643Z,4.90
2022-10-04T07:44:59.380Z,4.75
2022-10-04T07:47:27.870Z,2.72
2022-10-04T07:49:55.852Z,3.55
2022-10-04T07:53:03.873Z,4.37
2022-10-04T07:55:42.844Z,2.60
2022-10-04T07:58:30.968Z,4.45
2022-10-04T08:01:03.864Z,4.43
2022-10-04T08:04:02.569Z,2.03
2022-10-04T08:06:56.403Z,1.65
2022-10-04T08:09:45.629Z,3.05
2022-10-04T08:12:34.701Z,3.85
2022-10-04T08:15:14.546Z,2.75
2022-10-04T08:17:56.250Z,3.17
2022-10-04T08:20:32.576Z,3.37
2022-10-04T08:23:07.891Z,4.18
2022-10-04T08:25:54.919Z,3.87
2022-10-04T08:29:02.846Z,2.00
2022-10-04T08:32:23.367Z,4.22
2022-10-04T08:35:05.875Z,6.12
2022-10-04T08:37:53.794Z,4.37
2022-10-04T08:40:44.100Z,2.65
2022-10-04T08:43:41.628Z,4.15
2022-10-04T08:46:36.778Z,2.62
2022-10-04T08:49:49.255Z,3.25
2022-10-04T08:52:37.013Z,2.37
2022-10-04T08:55:39.176Z,2.92
2022-10-04T08:58:12.457Z,3.63
2022-10-04T09:01:00.374Z,4.25
2022-10-04T09:04:08.623Z,3.45
2022-10-04T09:06:59.405Z,3.30
2022-10-04T09:09:49.820Z,3.87
2022-10-04T09:12:29.608Z,5.70
2022-10-04T09:15:34.654Z,4.03
2022-10-04T09:18:19.439Z,2.97
2022-10-04T09:21:12.143Z,2.53
2022-10-04T09:24:07.817Z,3.60
2022-10-04T09:27:26.869Z,4.47
2022-10-04T09:30:23.068Z,3.47
2022-10-04T09:33:02.648Z,3.53
2022-10-04T09:36:01.904Z,4.65
2022-10-04T09:38:35.885Z,3.85
2022-10-04T09:41:14.629Z,3.03
2022-10-04T09:43:58.988Z,3.20
2022-10-04T09:46:45.243Z,7.70
2022-10-04T09:49:35.148Z,3.50
2022-10-04T09:52:20.831Z,3.35
2022-10-04T09:55:06.087Z,3.58
2022-10-04T09:58:04.111Z,5.87
2022-10-04T10:00:47.632Z,2.72
2022-10-04T10:03:27.159Z,2.97
2022-10-04T10:06:17.901Z,3.72
2022-10-04T10:08:54.543Z,2.47
2022-10-04T10:11:50.964Z,4.40
2022-10-04T10:14:46.810Z,5.15
2022-10-04T10:17:21.528Z,3.15
2022-10-04T10:20:03.862Z,4.87
2022-10-04T10:22:52.929Z,3.92
2022-10-04T10:25:39.168Z,3.10
2022-10-04T10:28:37.718Z,2.47
2022-10-04T10:31:22.407Z,4.30
2022-10-04T10:34:38.108Z,3.25
2022-10-04T10:37:12.555Z,2.78
2022-10-04T10:39:48.883Z,3.15
2022-10-04T10:42:54.239Z,4.97
2022-10-04T10:45:56.621Z,2.33
2022-10-04T10:48:43.887Z,4.82
2022-10-04T10:51:20.384Z,1.62
2022-10-04T10:54:19.205Z,3.50
2022-10-04T10:57:00.792Z,1.95
2022-10-04T10:59:49.910Z,6.15
2022-10-04T11:03:13.358Z,5.55
2022-10-04T11:06:06.309Z,4.55
2022-10-04T11:09:10.438Z,2.77
2022-10-04T11:12:35.167Z,3.97
2022-10-04T11:15:02.335Z,2.25
2022-10-04T11:17:40.257Z,3.33
2022-10-04T11:21:05.089Z,2.53
2022-10-04T11:24:04.636Z,2.22
2022-10-04T11:26:56.974Z,4.55
2022-10-04T11:32:00.893Z,4.60
2022-10-04T11:34:50.793Z,3.15
2022-10-04T11:37:31.622Z,4.20
2022-10-04T11:40:21.318Z,4.05
2022-10-04T11:43:01.106Z,4.00
2022-10-04T11:45:55.874Z,2.65
2022-10-04T11:48:32.201Z,4.60
2022-10-04T11:51:12.376Z,3.10
2022-10-04T11:54:17.058Z,4.53
2022-10-04T11:57:04.154Z,3.60
2022-10-04T11:59:50.052Z,2.53
2022-10-04T12:02:53.350Z,1.98
2022-10-04T12:05:23.727Z,2.78
2022-10-04T12:08:10.234Z,3.70
2022-10-04T12:10:40.542Z,2.92
2022-10-04T12:13:39.067Z,4.32
2022-10-04T12:16:25.602Z,4.07
2022-10-04T12:19:17.808Z,5.70
2022-10-04T12:21:54.993Z,2.75
2022-10-04T12:24:33.076Z,3.53
2022-10-04T12:27:25.280Z,3.60
2022-10-04T12:30:21.679Z,2.53
2022-10-04T12:33:06.869Z,2.70
2022-10-04T12:35:34.024Z,3.10
2022-10-04T12:38:16.900Z,4.82
2022-10-04T12:40:58.328Z,5.15
2022-10-04T12:43:35.754Z,2.30
2022-10-04T12:46:25.352Z,5.87
2022-10-04T12:49:16.833Z,4.95
2022-10-04T12:52:02.665Z,3.85
2022-10-04T12:54:37.178Z,4.68
2022-10-04T12:57:23.320Z,3.35
2022-10-04T13:00:00.436Z,3.55
2022-10-04T13:02:47.748Z,2.90
2022-10-04T13:05:41.430Z,1.70
2022-10-04T13:08:43.904Z,3.58
2022-10-04T13:11:24.803Z,1.60
2022-10-04T13:14:29.399Z,3.03
2022-10-04T13:17:34.800Z,3.05
2022-10-04T13:20:31.540Z,3.47
2022-10-04T13:23:03.871Z,3.80
2022-10-04T13:26:04.016Z,2.70
2022-10-04T13:28:46.919Z,2.97
2022-10-04T13:34:05.882Z,2.87
2022-10-04T13:36:58.842Z,1.52
2022-10-04T13:39:53.784Z,4.65
2022-10-04T13:42:33.079Z,4.85
2022-10-04T13:45:18.343Z,2.22
2022-10-04T13:47:54.542Z,4.53
2022-10-04T13:50:38.372Z,2.65
2022-10-04T13:53:38.992Z,3.55
2022-10-04T13:56:28.200Z,3.42
2022-10-04T13:59:18.699Z,2.92
2022-10-04T14:02:10.199Z,3.28
2022-10-04T14:04:57.076Z,1.77
2022-10-04T14:07:30.547Z,4.00
2022-10-04T14:10:11.121Z,1.70
2022-10-04T14:12:47.383Z,2.08
2022-10-04T14:15:33.679Z,3.25
2022-10-04T14:18:34.570Z,1.83
2022-10-04T14:21:19.358Z,2.08
2022-10-04T14:23:56.219Z,1.65
2022-10-04T14:26:46.854Z,2.30
2022-10-04T14:29:35.278Z,2.00
2022-10-04T14:32:12.200Z,3.55
2022-10-04T14:34:56.910Z,2.42
2022-10-04T14:37:37.333Z,2.72
2022-10-04T14:40:10.209Z,2.70
2022-10-04T14:42:56.722Z,4.47
2022-10-04T14:45:37.746Z,2.30
2022-10-04T14:48:24.423Z,1.45
2022-10-04T14:51:09.877Z,0.93
2022-10-04T14:53:53.227Z,1.80
2022-10-04T14:56:42.162Z,2.95
2022-10-04T14:59:32.978Z,3.67
2022-10-04T15:02:03.121Z,1.33
2022-10-04T15:04:51.274Z,3.28
2022-10-04T15:07:30.564Z,1.58
2022-10-04T15:10:01.108Z,1.95
2022-10-04T15:12:58.473Z,2.15
2022-10-04T15:15:36.905Z,2.30
2022-10-04T15:18:11.982Z,1.70
2022-10-04T15:21:02.619Z,2.00
2022-10-04T15:23:35.069Z,2.70
2022-10-04T15:26:22.858Z,2.17
2022-10-04T15:28:50.249Z,2.03
2022-10-04T15:31:34.051Z,2.83
2022-10-04T15:34:29.567Z,3.00
2022-10-04T15:37:38.552Z,2.40
2022-10-04T15:40:29.656Z,2.47
2022-10-04T15:43:14.863Z,3.30
2022-10-04T15:45:52.227Z,2.92
2022-10-04T15:48:52.215Z,2.62
2022-10-04T15:51:48.754Z,2.12
2022-10-04T15:54:22.082Z,2.80
2022-10-04T15:56:54.164Z,4.90
2022-10-04T15:59:22.013Z,2.05
2022-10-04T16:02:23.634Z,1.30
2022-10-04T16:04:57.015Z,2.93
2022-10-04T16:07:27.935Z,3.35
2022-10-04T16:10:15.072Z,2.55
2022-10-04T16:13:34.084Z,4.03
2022-10-04T16:16:16.864Z,6.45
2022-10-04T16:19:09.973Z,6.45
2022-10-04T16:21:43.444Z,8.25
2022-10-04T16:24:19.446Z,4.53
2022-10-04T16:26:47.586Z,9.07
2022-10-04T16:30:14.518Z,5.40
2022-10-04T16:33:00.881Z,6.25
2022-10-04T16:35:34.705Z,8.25
2022-10-04T16:38:23.182Z,4.87
2022-10-04T16:40:50.345Z,4.82
2022-10-04T16:43:17.799Z,3.45
2022-10-04T16:46:03.412Z,5.55
2022-10-04T16:48:37.563Z,9.55
2022-10-04T16:51:04.786Z,15.40
2022-10-04T16:53:53.351Z,16.40
2022-10-04T16:56:23.231Z,14.00
2022-10-04T16:59:10.680Z,13.00
2022-10-04T17:02:00.180Z,15.15
2022-10-04T17:04:30.781Z,21.60
2022-10-04T17:07:00.016Z,18.33
2022-10-04T17:09:35.461Z,22.60
2022-10-04T17:12:22.102Z,22.95
2022-10-04T17:15:14.112Z,13.60
2022-10-04T17:18:06.318Z,8.57
2022-10-04T17:20:45.873Z,10.25
2022-10-04T17:23:47.168Z,11.35
2022-10-04T17:26:42.957Z,10.15
2022-10-04T17:30:01.719Z,9.98
2022-10-04T17:32:57.133Z,11.65
2022-10-04T17:35:46.986Z,7.40
2022-10-04T17:38:52.262Z,8.73
2022-10-04T17:41:43.986Z,8.80
2022-10-04T17:44:36.939Z,8.65
2022-10-04T17:47:19.118Z,8.23
2022-10-04T17:50:18.551Z,13.62
2022-10-04T17:53:12.040Z,9.20
2022-10-04T17:55:52.913Z,11.27
2022-10-04T17:58:25.185Z,10.88
2022-10-04T18:00:58.973Z,11.38
2022-10-04T18:03:37.236Z,12.82
2022-10-04T18:06:47.086Z,8.73
2022-10-04T18:09:40.616Z,8.13
2022-10-04T18:12:13.683Z,9.35
2022-10-04T18:15:09.499Z,8.40
2022-10-04T18:17:40.770Z,11.80
2022-10-04T18:20:26.321Z,14.27
2022-10-04T18:23:20.861Z,17.58
2022-10-04T18:25:48.981Z,24.45
2022-10-04T18:28:20.758Z,27.87
2022-10-04T18:30:48.481Z,27.58
2022-10-04T18:33:25.929Z,24.35
2022-10-04T18:36:22.285Z,18.42
2022-10-04T18:39:11.792Z,15.13
2022-10-04T18:41:52.335Z,17.50
2022-10-04T18:45:01.716Z,17.48
2022-10-04T18:47:39.095Z,15.13
2022-10-04T18:50:17.563Z,12.82
2022-10-04T18:53:21.857Z,13.82
2022-10-04T18:55:59.489Z,13.50
2022-10-04T18:59:08.178Z,13.25
2022-10-04T19:02:00.414Z,13.98
2022-10-04T19:07:11.896Z,11.57
2022-10-04T19:10:01.014Z,11.23
2022-10-04T19:12:52.701Z,14.60
2022-10-04T19:15:35.911Z,14.10
2022-10-04T19:18:09.128Z,13.38
2022-10-04T19:20:44.073Z,14.60
2022-10-04T19:23:30.843Z,14.57
2022-10-04T19:26:31.045Z,14.38
2022-10-04T19:29:36.909Z,14.80
2022-10-04T19:32:08.928Z,14.55
2022-10-04T19:34:49.051Z,11.77
2022-10-04T19:37:25.905Z,11.07
2022-10-04T19:40:25.725Z,10.90
2022-10-04T19:43:08.393Z,11.98
2022-10-04T19:45:54.708Z,11.90
2022-10-04T19:48:25.556Z,11.00
2022-10-04T19:51:20.627Z,10.65
2022-10-04T19:53:50.567Z,11.10
2022-10-04T19:56:19.754Z,9.80
2022-10-04T19:59:05.103Z,10.88
2022-10-04T20:01:33.458Z,9.35
2022-10-04T20:04:20.370Z,9.85
2022-10-04T20:06:57.007Z,8.15
2022-10-04T20:09:36.665Z,8.50
2022-10-04T20:12:05.328Z,9.48
2022-10-04T20:14:32.773Z,9.05
2022-10-04T20:17:02.981Z,8.23
2022-10-04T20:19:30.348Z,9.57
2022-10-04T20:22:12.931Z,8.52
2022-10-04T20:24:40.192Z,7.80
2022-10-04T20:27:31.699Z,8.10
2022-10-04T20:30:04.735Z,8.18
2022-10-04T20:32:36.788Z,8.63
2022-10-04T20:35:14.031Z,7.32
2022-10-04T20:37:44.249Z,7.47
2022-10-04T20:40:40.585Z,10.77
2022-10-04T20:43:13.950Z,10.07
2022-10-04T20:45:46.159Z,11.68
2022-10-04T20:48:22.292Z,10.10
2022-10-04T20:50:49.887Z,12.73
2022-10-04T20:53:22.573Z,11.23
2022-10-04T20:58:37.336Z,9.75
2022-10-04T21:01:25.423Z,9.80
2022-10-04T21:03:53.031Z,11.12
2022-10-04T21:06:20.343Z,9.43
2022-10-04T21:08:47.666Z,7.30
2022-10-04T21:11:20.396Z,7.90
2022-10-04T21:14:01.964Z,10.82
2022-10-04T21:16:40.584Z,12.90
2022-10-04T21:19:30.137Z,11.02
2022-10-04T21:22:08.025Z,7.85
2022-10-04T21:24:42.219Z,7.43
2022-10-04T21:27:11.492Z,8.90
2022-10-04T21:29:39.286Z,6.95
2022-10-04T21:32:06.633Z,8.88
2022-10-04T21:34:52.323Z,9.13
2022-10-04T21:37:21.238Z,8.00
2022-10-04T21:39:48.786Z,8.13
2022-10-04T21:42:16.152Z,6.62
2022-10-04T21:44:43.726Z,9.05
2022-10-04T21:47:11.375Z,11.40
2022-10-04T21:49:39.449Z,13.30
2022-10-04T21:52:06.841Z,10.05
2022-10-04T21:54:34.480Z,9.30
2022-10-04T21:57:01.859Z,9.02
2022-10-04T21:59:29.388Z,10.07
2022-10-04T22:01:57.033Z,9.60
2022-10-04T22:04:24.637Z,10.52
2022-10-04T22:06:51.953Z,7.65
2022-10-04T22:09:19.217Z,9.88
2022-10-04T22:11:46.886Z,7.53
2022-10-04T22:14:14.156Z,6.87
2022-10-04T22:16:41.556Z,9.35
2022-10-04T22:19:09.168Z,7.00
2022-10-04T22:21:36.550Z,10.88
2022-10-04T22:24:06.514Z,7.00
2022-10-04T22:26:34.049Z,8.35
2022-10-04T22:29:01.321Z,11.85
2022-10-04T22:31:29.611Z,10.93
2022-10-04T22:33:57.286Z,10.30
2022-10-04T22:36:27.234Z,8.63
2022-10-04T22:39:01.122Z,11.30
2022-10-04T22:41:31.222Z,10.70
2022-10-04T22:44:00.220Z,8.00
2022-10-04T22:46:38.824Z,7.50
2022-10-04T22:49:15.546Z,7.87
2022-10-04T22:51:44.673Z,8.48
2022-10-04T22:54:24.860Z,7.53
2022-10-04T22:56:52.980Z,12.70
2022-10-04T22:59:21.674Z,10.65
2022-10-04T23:01:49.184Z,12.65
2022-10-04T23:04:24.493Z,12.32
2022-10-04T23:06:52.941Z,7.65
2022-10-04T23:09:20.784Z,8.63
2022-10-04T23:11:48.313Z,7.20
2022-10-04T23:14:15.836Z,9.77
2022-10-04T23:16:44.659Z,8.65
2022-10-04T23:19:14.692Z,8.65
2022-10-04T23:21:46.831Z,10.23
2022-10-04T23:24:16.819Z,8.65
2022-10-04T23:26:49.536Z,9.75
2022-10-04T23:29:33.610Z,8.88
2022-10-04T23:32:09.892Z,10.98
2022-10-04T23:34:38.804Z,8.30
2022-10-04T23:37:32.759Z,9.70
2022-10-04T23:40:00.070Z,10.48
2022-10-04T23:42:30.186Z,10.18
2022-10-04T23:45:00.573Z,9.20
2022-10-04T23:47:35.843Z,9.30
2022-10-04T23:50:18.203Z,10.60
2022-10-04T23:55:18.406Z,6.47
2022-10-04T23:57:46.245Z,8.93
